sensor_id;sensor_type;location;lat;lon;timestamp;temperature;humidity
9971;DHT22;5026;51.494;11.974;2022-12-29T00:01:32;9.20;99.90
9971;DHT22;5026;51.494;11.974;2022-12-29T00:03:59;9.20;99.90
9971;DHT22;5026;51.494;11.974;2022-12-29T00:06:27;9.20;99.90
9971;DHT22;5026;51.494;11.974;2022-12-29T00:08:55;9.20;99.90
9971;DHT22;5026;51.494;11.974;2022-12-29T00:11:23;9.20;99.90
9971;DHT22;5026;51.494;11.974;2022-12-29T00:13:51;9.20;99.90
9971;DHT22;5026;51.494;11.974;2022-12-29T00:16:42;9.20;99.90
9971;DHT22;5026;51.494;11.974;2022-12-29T00:19:10;9.20;99.90
9971;DHT22;5026;51.494;11.974;2022-12-29T00:21:59;9.30;99.90
9971;DHT22;5026;51.494;11.974;2022-12-29T00:24:43;10.70;99.90
9971;DHT22;5026;51.494;11.974;2022-12-29T00:27:29;9.30;99.90
9971;DHT22;5026;51.494;11.974;2022-12-29T00:30:15;9.40;99.90
9971;DHT22;5026;51.494;11.974;2022-12-29T00:33:00;9.40;99.90
9971;DHT22;5026;51.494;11.974;2022-12-29T00:35:53;9.40;99.90
9971;DHT22;5026;51.494;11.974;2022-12-29T00:38:22;9.40;99.90
9971;DHT22;5026;51.494;11.974;2022-12-29T00:41:06;9.40;99.90
9971;DHT22;5026;51.494;11.974;2022-12-29T00:43:50;9.40;99.90
9971;DHT22;5026;51.494;11.974;2022-12-29T00:46:32;9.40;99.90
9971;DHT22;5026;51.494;11.974;2022-12-29T00:49:00;9.40;99.90
9971;DHT22;5026;51.494;11.974;2022-12-29T00:51:45;9.40;99.90
9971;DHT22;5026;51.494;11.974;2022-12-29T00:54:14;10.60;99.90
9971;DHT22;5026;51.494;11.974;2022-12-29T00:56:43;9.40;99.90
9971;DHT22;5026;51.494;11.974;2022-12-29T00:59:10;9.30;99.90
9971;DHT22;5026;51.494;11.974;2022-12-29T01:01:38;9.30;99.90
9971;DHT22;5026;51.494;11.974;2022-12-29T01:04:05;8.00;99.90
9971;DHT22;5026;51.494;11.974;2022-12-29T01:06:32;9.20;99.90
9971;DHT22;5026;51.494;11.974;2022-12-29T01:09:00;9.20;99.90
9971;DHT22;5026;51.494;11.974;2022-12-29T01:11:45;9.10;99.90
9971;DHT22;5026;51.494;11.974;2022-12-29T01:14:13;9.10;99.90
9971;DHT22;5026;51.494;11.974;2022-12-29T01:16:40;9.00;99.90
9971;DHT22;5026;51.494;11.974;2022-12-29T01:19:06;8.50;99.90
9971;DHT22;5026;51.494;11.974;2022-12-29T01:21:33;9.00;99.90
9971;DHT22;5026;51.494;11.974;2022-12-29T01:24:00;8.90;99.90
9971;DHT22;5026;51.494;11.974;2022-12-29T01:26:27;8.90;99.90
9971;DHT22;5026;51.494;11.974;2022-12-29T01:28:56;8.80;99.90
9971;DHT22;5026;51.494;11.974;2022-12-29T01:31:22;8.90;99.90
9971;DHT22;5026;51.494;11.974;2022-12-29T01:33:49;8.90;99.90
9971;DHT22;5026;51.494;11.974;2022-12-29T01:36:18;8.90;99.90
9971;DHT22;5026;51.494;11.974;2022-12-29T01:38:45;9.00;99.90
9971;DHT22;5026;51.494;11.974;2022-12-29T01:41:14;9.00;99.90
9971;DHT22;5026;51.494;11.974;2022-12-29T01:43:43;9.00;99.90
9971;DHT22;5026;51.494;11.974;2022-12-29T01:46:19;9.10;99.90
9971;DHT22;5026;51.494;11.974;2022-12-29T01:48:52;9.20;99.90
9971;DHT22;5026;51.494;11.974;2022-12-29T01:51:22;9.20;99.90
9971;DHT22;5026;51.494;11.974;2022-12-29T01:53:50;9.40;99.90
9971;DHT22;5026;51.494;11.974;2022-12-29T01:56:20;9.40;99.90
9971;DHT22;5026;51.494;11.974;2022-12-29T01:58:51;9.40;99.90
9971;DHT22;5026;51.494;11.974;2022-12-29T02:01:22;9.40;99.90
9971;DHT22;5026;51.494;11.974;2022-12-29T02:03:50;9.50;99.90
9971;DHT22;5026;51.494;11.974;2022-12-29T02:06:21;9.50;99.90
9971;DHT22;5026;51.494;11.974;2022-12-29T02:08:50;9.60;99.90
9971;DHT22;5026;51.494;11.974;2022-12-29T02:11:18;9.60;99.90
9971;DHT22;5026;51.494;11.974;2022-12-29T02:13:46;9.60;99.90
9971;DHT22;5026;51.494;11.974;2022-12-29T02:16:28;9.60;99.90
9971;DHT22;5026;51.494;11.974;2022-12-29T02:19:14;9.70;99.90
9971;DHT22;5026;51.494;11.974;2022-12-29T02:22:00;9.80;99.90
9971;DHT22;5026;51.494;11.974;2022-12-29T02:27:51;9.80;99.90
9971;DHT22;5026;51.494;11.974;2022-12-29T02:30:38;9.80;99.90
9971;DHT22;5026;51.494;11.974;2022-12-29T02:33:18;9.80;99.90
9971;DHT22;5026;51.494;11.974;2022-12-29T02:35:53;9.80;99.90
9971;DHT22;5026;51.494;11.974;2022-12-29T02:38:28;9.90;99.90
9971;DHT22;5026;51.494;11.974;2022-12-29T02:41:03;9.90;99.90
9971;DHT22;5026;51.494;11.974;2022-12-29T02:43:37;9.90;99.90
9971;DHT22;5026;51.494;11.974;2022-12-29T02:46:12;9.90;99.90
9971;DHT22;5026;51.494;11.974;2022-12-29T02:48:46;9.80;99.90
9971;DHT22;5026;51.494;11.974;2022-12-29T02:51:20;9.80;99.90
9971;DHT22;5026;51.494;11.974;2022-12-29T02:53:48;9.80;99.90
9971;DHT22;5026;51.494;11.974;2022-12-29T02:56:32;9.80;99.90
9971;DHT22;5026;51.494;11.974;2022-12-29T02:58:59;9.80;99.90
9971;DHT22;5026;51.494;11.974;2022-12-29T03:01:40;9.80;99.90
9971;DHT22;5026;51.494;11.974;2022-12-29T03:04:35;9.80;99.90
9971;DHT22;5026;51.494;11.974;2022-12-29T03:07:09;9.80;99.90
9971;DHT22;5026;51.494;11.974;2022-12-29T03:09:49;9.90;99.90
9971;DHT22;5026;51.494;11.974;2022-12-29T03:12:25;9.80;99.90
9971;DHT22;5026;51.494;11.974;2022-12-29T03:15:15;9.80;99.90
9971;DHT22;5026;51.494;11.974;2022-12-29T03:18:06;9.90;99.90
9971;DHT22;5026;51.494;11.974;2022-12-29T03:20:37;9.90;99.90
9971;DHT22;5026;51.494;11.974;2022-12-29T03:23:05;9.90;99.90
9971;DHT22;5026;51.494;11.974;2022-12-29T03:25:33;11.20;99.90
9971;DHT22;5026;51.494;11.974;2022-12-29T03:28:01;9.90;99.90
9971;DHT22;5026;51.494;11.974;2022-12-29T03:30:29;10.00;99.90
9971;DHT22;5026;51.494;11.974;2022-12-29T03:32:57;10.00;99.90
9971;DHT22;5026;51.494;11.974;2022-12-29T03:35:27;10.10;99.90
9971;DHT22;5026;51.494;11.974;2022-12-29T03:37:58;10.10;99.90
9971;DHT22;5026;51.494;11.974;2022-12-29T03:40:27;10.00;99.90
9971;DHT22;5026;51.494;11.974;2022-12-29T03:42:56;10.00;99.90
9971;DHT22;5026;51.494;11.974;2022-12-29T03:45:23;10.00;99.90
9971;DHT22;5026;51.494;11.974;2022-12-29T03:47:51;10.10;99.90
9971;DHT22;5026;51.494;11.974;2022-12-29T03:50:18;10.10;99.90
9971;DHT22;5026;51.494;11.974;2022-12-29T03:52:46;10.10;99.90
9971;DHT22;5026;51.494;11.974;2022-12-29T03:55:13;10.20;99.90
9971;DHT22;5026;51.494;11.974;2022-12-29T03:57:40;10.20;99.90
9971;DHT22;5026;51.494;11.974;2022-12-29T04:00:08;10.20;99.90
9971;DHT22;5026;51.494;11.974;2022-12-29T04:02:36;10.20;99.90
9971;DHT22;5026;51.494;11.974;2022-12-29T04:05:04;10.30;99.90
9971;DHT22;5026;51.494;11.974;2022-12-29T04:07:31;10.30;99.90
9971;DHT22;5026;51.494;11.974;2022-12-29T04:09:59;10.30;99.90
9971;DHT22;5026;51.494;11.974;2022-12-29T04:12:26;10.30;99.90
9971;DHT22;5026;51.494;11.974;2022-12-29T04:14:53;10.40;99.90
9971;DHT22;5026;51.494;11.974;2022-12-29T04:17:19;10.40;99.90
9971;DHT22;5026;51.494;11.974;2022-12-29T04:19:46;10.40;99.90
9971;DHT22;5026;51.494;11.974;2022-12-29T04:22:13;10.40;99.90
9971;DHT22;5026;51.494;11.974;2022-12-29T04:24:39;10.40;99.90
9971;DHT22;5026;51.494;11.974;2022-12-29T04:27:07;10.40;99.90
9971;DHT22;5026;51.494;11.974;2022-12-29T04:29:34;10.40;99.90
9971;DHT22;5026;51.494;11.974;2022-12-29T04:32:01;10.40;99.90
9971;DHT22;5026;51.494;11.974;2022-12-29T04:34:28;10.40;99.90
9971;DHT22;5026;51.494;11.974;2022-12-29T04:36:55;10.50;99.90
9971;DHT22;5026;51.494;11.974;2022-12-29T04:39:22;10.50;99.90
9971;DHT22;5026;51.494;11.974;2022-12-29T04:41:49;10.40;99.90
9971;DHT22;5026;51.494;11.974;2022-12-29T04:44:17;10.40;99.90
9971;DHT22;5026;51.494;11.974;2022-12-29T04:46:43;10.20;99.90
9971;DHT22;5026;51.494;11.974;2022-12-29T04:49:10;10.10;99.90
9971;DHT22;5026;51.494;11.974;2022-12-29T04:51:37;10.00;99.90
9971;DHT22;5026;51.494;11.974;2022-12-29T04:54:04;9.80;99.90
9971;DHT22;5026;51.494;11.974;2022-12-29T04:56:30;9.80;99.90
9971;DHT22;5026;51.494;11.974;2022-12-29T04:58:57;10.40;99.90
9971;DHT22;5026;51.494;11.974;2022-12-29T05:01:25;9.70;99.90
9971;DHT22;5026;51.494;11.974;2022-12-29T05:03:52;9.60;99.90
9971;DHT22;5026;51.494;11.974;2022-12-29T05:06:18;9.50;99.90
9971;DHT22;5026;51.494;11.974;2022-12-29T05:08:45;9.50;99.90
9971;DHT22;5026;51.494;11.974;2022-12-29T05:11:12;9.40;99.90
9971;DHT22;5026;51.494;11.974;2022-12-29T05:13:38;9.50;99.90
9971;DHT22;5026;51.494;11.974;2022-12-29T05:16:05;9.50;99.90
9971;DHT22;5026;51.494;11.974;2022-12-29T05:18:34;9.50;99.90
9971;DHT22;5026;51.494;11.974;2022-12-29T05:21:00;9.40;99.90
9971;DHT22;5026;51.494;11.974;2022-12-29T05:23:27;9.60;99.90
9971;DHT22;5026;51.494;11.974;2022-12-29T05:25:54;9.50;99.90
9971;DHT22;5026;51.494;11.974;2022-12-29T05:28:21;9.50;99.90
9971;DHT22;5026;51.494;11.974;2022-12-29T05:30:48;9.50;99.90
9971;DHT22;5026;51.494;11.974;2022-12-29T05:33:16;9.50;99.90
9971;DHT22;5026;51.494;11.974;2022-12-29T05:35:44;9.60;99.90
9971;DHT22;5026;51.494;11.974;2022-12-29T05:38:11;9.50;99.90
9971;DHT22;5026;51.494;11.974;2022-12-29T05:40:38;9.50;99.90
9971;DHT22;5026;51.494;11.974;2022-12-29T05:43:05;9.60;99.90
9971;DHT22;5026;51.494;11.974;2022-12-29T05:45:31;9.60;99.90
9971;DHT22;5026;51.494;11.974;2022-12-29T05:47:58;9.70;99.90
9971;DHT22;5026;51.494;11.974;2022-12-29T05:50:26;9.70;99.90
9971;DHT22;5026;51.494;11.974;2022-12-29T05:52:54;9.70;99.90
9971;DHT22;5026;51.494;11.974;2022-12-29T05:55:21;9.70;99.90
9971;DHT22;5026;51.494;11.974;2022-12-29T05:57:48;9.80;99.90
9971;DHT22;5026;51.494;11.974;2022-12-29T06:00:15;9.70;99.90
9971;DHT22;5026;51.494;11.974;2022-12-29T06:02:42;9.70;99.90
9971;DHT22;5026;51.494;11.974;2022-12-29T06:05:09;9.80;99.90
9971;DHT22;5026;51.494;11.974;2022-12-29T06:07:36;9.70;99.90
9971;DHT22;5026;51.494;11.974;2022-12-29T06:10:06;9.70;99.90
9971;DHT22;5026;51.494;11.974;2022-12-29T06:12:33;9.80;99.90
9971;DHT22;5026;51.494;11.974;2022-12-29T06:15:00;9.80;99.90
9971;DHT22;5026;51.494;11.974;2022-12-29T06:17:26;9.90;99.90
9971;DHT22;5026;51.494;11.974;2022-12-29T06:19:53;10.00;99.90
9971;DHT22;5026;51.494;11.974;2022-12-29T06:22:20;10.00;99.90
9971;DHT22;5026;51.494;11.974;2022-12-29T06:24:47;10.10;99.90
9971;DHT22;5026;51.494;11.974;2022-12-29T06:27:15;10.10;99.90
9971;DHT22;5026;51.494;11.974;2022-12-29T06:29:42;10.10;99.90
9971;DHT22;5026;51.494;11.974;2022-12-29T06:32:09;10.20;99.90
9971;DHT22;5026;51.494;11.974;2022-12-29T06:34:36;10.30;99.90
9971;DHT22;5026;51.494;11.974;2022-12-29T06:37:03;10.30;99.90
9971;DHT22;5026;51.494;11.974;2022-12-29T06:39:30;10.20;99.90
9971;DHT22;5026;51.494;11.974;2022-12-29T06:41:57;8.60;99.90
9971;DHT22;5026;51.494;11.974;2022-12-29T06:44:26;10.30;99.90
9971;DHT22;5026;51.494;11.974;2022-12-29T06:46:52;10.20;99.90
9971;DHT22;5026;51.494;11.974;2022-12-29T06:49:19;10.30;99.90
9971;DHT22;5026;51.494;11.974;2022-12-29T06:51:47;10.70;99.90
9971;DHT22;5026;51.494;11.974;2022-12-29T06:54:13;10.30;99.90
9971;DHT22;5026;51.494;11.974;2022-12-29T06:56:40;10.40;99.90
9971;DHT22;5026;51.494;11.974;2022-12-29T06:59:08;10.30;99.90
9971;DHT22;5026;51.494;11.974;2022-12-29T07:01:36;10.30;99.90
9971;DHT22;5026;51.494;11.974;2022-12-29T07:04:04;10.30;99.90
9971;DHT22;5026;51.494;11.974;2022-12-29T07:06:31;10.30;99.90
9971;DHT22;5026;51.494;11.974;2022-12-29T07:08:58;10.50;99.90
9971;DHT22;5026;51.494;11.974;2022-12-29T07:11:25;10.40;99.90
9971;DHT22;5026;51.494;11.974;2022-12-29T07:13:52;10.60;99.90
9971;DHT22;5026;51.494;11.974;2022-12-29T07:16:19;10.50;99.90
9971;DHT22;5026;51.494;11.974;2022-12-29T07:18:50;10.50;99.90
9971;DHT22;5026;51.494;11.974;2022-12-29T07:21:17;10.60;99.90
9971;DHT22;5026;51.494;11.974;2022-12-29T07:23:45;10.60;99.90
9971;DHT22;5026;51.494;11.974;2022-12-29T07:26:13;10.60;99.90
9971;DHT22;5026;51.494;11.974;2022-12-29T07:28:41;10.60;99.90
9971;DHT22;5026;51.494;11.974;2022-12-29T07:31:14;10.70;99.90
9971;DHT22;5026;51.494;11.974;2022-12-29T07:33:41;10.70;99.90
9971;DHT22;5026;51.494;11.974;2022-12-29T07:36:11;10.70;99.90
9971;DHT22;5026;51.494;11.974;2022-12-29T07:38:38;10.60;99.90
9971;DHT22;5026;51.494;11.974;2022-12-29T07:41:05;10.60;99.90
9971;DHT22;5026;51.494;11.974;2022-12-29T07:43:32;10.70;99.90
9971;DHT22;5026;51.494;11.974;2022-12-29T07:45:59;10.70;99.90
9971;DHT22;5026;51.494;11.974;2022-12-29T07:48:26;12.10;99.90
9971;DHT22;5026;51.494;11.974;2022-12-29T07:50:53;10.40;99.90
9971;DHT22;5026;51.494;11.974;2022-12-29T07:53:21;10.30;99.90
9971;DHT22;5026;51.494;11.974;2022-12-29T07:55:48;10.20;99.90
9971;DHT22;5026;51.494;11.974;2022-12-29T07:58:15;10.70;99.90
9971;DHT22;5026;51.494;11.974;2022-12-29T08:00:42;10.20;99.90
9971;DHT22;5026;51.494;11.974;2022-12-29T08:03:09;10.20;99.90
9971;DHT22;5026;51.494;11.974;2022-12-29T08:05:36;10.30;99.90
9971;DHT22;5026;51.494;11.974;2022-12-29T08:08:03;10.30;99.90
9971;DHT22;5026;51.494;11.974;2022-12-29T08:10:31;10.40;99.90
9971;DHT22;5026;51.494;11.974;2022-12-29T08:12:58;10.50;99.90
9971;DHT22;5026;51.494;11.974;2022-12-29T08:15:25;10.50;99.90
9971;DHT22;5026;51.494;11.974;2022-12-29T08:17:52;10.70;99.90
9971;DHT22;5026;51.494;11.974;2022-12-29T08:20:18;10.70;99.90
9971;DHT22;5026;51.494;11.974;2022-12-29T08:22:45;10.80;99.90
9971;DHT22;5026;51.494;11.974;2022-12-29T08:25:12;10.90;99.90
9971;DHT22;5026;51.494;11.974;2022-12-29T08:27:40;11.10;99.90
9971;DHT22;5026;51.494;11.974;2022-12-29T08:30:08;11.10;99.90
9971;DHT22;5026;51.494;11.974;2022-12-29T08:32:35;11.20;99.90
9971;DHT22;5026;51.494;11.974;2022-12-29T08:35:03;11.20;99.90
9971;DHT22;5026;51.494;11.974;2022-12-29T08:37:30;11.20;99.90
9971;DHT22;5026;51.494;11.974;2022-12-29T08:39:58;11.40;99.90
9971;DHT22;5026;51.494;11.974;2022-12-29T08:42:29;11.40;99.90
9971;DHT22;5026;51.494;11.974;2022-12-29T08:44:57;11.40;99.90
9971;DHT22;5026;51.494;11.974;2022-12-29T08:47:24;11.40;99.90
9971;DHT22;5026;51.494;11.974;2022-12-29T08:49:52;11.40;99.90
9971;DHT22;5026;51.494;11.974;2022-12-29T08:52:19;11.50;99.90
9971;DHT22;5026;51.494;11.974;2022-12-29T08:54:45;11.50;99.90
9971;DHT22;5026;51.494;11.974;2022-12-29T08:57:12;11.50;99.90
9971;DHT22;5026;51.494;11.974;2022-12-29T08:59:39;11.60;99.90
9971;DHT22;5026;51.494;11.974;2022-12-29T09:02:10;12.30;99.90
9971;DHT22;5026;51.494;11.974;2022-12-29T09:04:37;12.30;99.90
9971;DHT22;5026;51.494;11.974;2022-12-29T09:07:04;12.40;99.90
9971;DHT22;5026;51.494;11.974;2022-12-29T09:09:31;12.40;99.90
9971;DHT22;5026;51.494;11.974;2022-12-29T09:11:57;12.50;99.90
9971;DHT22;5026;51.494;11.974;2022-12-29T09:14:24;12.60;99.90
9971;DHT22;5026;51.494;11.974;2022-12-29T09:16:51;12.60;99.90
9971;DHT22;5026;51.494;11.974;2022-12-29T09:19:37;12.50;99.90
9971;DHT22;5026;51.494;11.974;2022-12-29T09:22:04;12.50;99.90
9971;DHT22;5026;51.494;11.974;2022-12-29T09:24:31;12.70;99.90
9971;DHT22;5026;51.494;11.974;2022-12-29T09:26:58;12.90;99.90
9971;DHT22;5026;51.494;11.974;2022-12-29T09:29:24;13.00;99.90
9971;DHT22;5026;51.494;11.974;2022-12-29T09:31:51;13.10;99.90
9971;DHT22;5026;51.494;11.974;2022-12-29T09:34:18;13.30;99.90
9971;DHT22;5026;51.494;11.974;2022-12-29T09:36:46;13.30;99.90
9971;DHT22;5026;51.494;11.974;2022-12-29T09:39:13;13.10;99.90
9971;DHT22;5026;51.494;11.974;2022-12-29T09:41:45;13.20;99.90
9971;DHT22;5026;51.494;11.974;2022-12-29T09:44:16;13.30;99.90
9971;DHT22;5026;51.494;11.974;2022-12-29T09:46:47;13.50;99.90
9971;DHT22;5026;51.494;11.974;2022-12-29T09:49:21;13.80;99.90
9971;DHT22;5026;51.494;11.974;2022-12-29T09:51:52;14.00;99.90
9971;DHT22;5026;51.494;11.974;2022-12-29T09:54:31;14.10;99.90
9971;DHT22;5026;51.494;11.974;2022-12-29T09:56:59;13.80;99.90
9971;DHT22;5026;51.494;11.974;2022-12-29T09:59:38;13.70;99.90
9971;DHT22;5026;51.494;11.974;2022-12-29T10:02:21;13.50;99.90
9971;DHT22;5026;51.494;11.974;2022-12-29T10:04:51;13.30;99.90
9971;DHT22;5026;51.494;11.974;2022-12-29T10:07:28;13.30;99.90
9971;DHT22;5026;51.494;11.974;2022-12-29T10:10:04;13.40;99.90
9971;DHT22;5026;51.494;11.974;2022-12-29T10:12:44;13.40;99.90
9971;DHT22;5026;51.494;11.974;2022-12-29T10:15:31;13.50;99.90
9971;DHT22;5026;51.494;11.974;2022-12-29T10:18:06;13.50;99.90
9971;DHT22;5026;51.494;11.974;2022-12-29T10:20:47;13.50;99.90
9971;DHT22;5026;51.494;11.974;2022-12-29T10:23:36;13.40;99.90
9971;DHT22;5026;51.494;11.974;2022-12-29T10:26:09;13.30;99.90
9971;DHT22;5026;51.494;11.974;2022-12-29T10:28:40;13.30;99.90
9971;DHT22;5026;51.494;11.974;2022-12-29T10:31:13;13.30;99.90
9971;DHT22;5026;51.494;11.974;2022-12-29T10:33:43;13.30;99.90
9971;DHT22;5026;51.494;11.974;2022-12-29T10:36:14;13.40;99.90
9971;DHT22;5026;51.494;11.974;2022-12-29T10:38:48;13.40;99.90
9971;DHT22;5026;51.494;11.974;2022-12-29T10:41:23;13.30;99.90
9971;DHT22;5026;51.494;11.974;2022-12-29T10:43:53;13.30;99.90
9971;DHT22;5026;51.494;11.974;2022-12-29T10:46:23;13.30;99.90
9971;DHT22;5026;51.494;11.974;2022-12-29T10:48:51;13.20;99.90
9971;DHT22;5026;51.494;11.974;2022-12-29T10:51:22;13.20;99.90
9971;DHT22;5026;51.494;11.974;2022-12-29T10:53:53;13.20;99.90
9971;DHT22;5026;51.494;11.974;2022-12-29T10:56:28;13.10;99.90
9971;DHT22;5026;51.494;11.974;2022-12-29T10:58:59;13.10;99.90
9971;DHT22;5026;51.494;11.974;2022-12-29T11:01:39;13.40;99.90
9971;DHT22;5026;51.494;11.974;2022-12-29T11:04:22;13.10;99.90
9971;DHT22;5026;51.494;11.974;2022-12-29T11:06:52;13.10;99.90
9971;DHT22;5026;51.494;11.974;2022-12-29T11:09:24;13.20;99.90
9971;DHT22;5026;51.494;11.974;2022-12-29T11:11:51;13.20;99.90
9971;DHT22;5026;51.494;11.974;2022-12-29T11:14:20;13.20;99.90
9971;DHT22;5026;51.494;11.974;2022-12-29T11:16:57;13.40;99.90
9971;DHT22;5026;51.494;11.974;2022-12-29T11:19:25;13.50;99.90
9971;DHT22;5026;51.494;11.974;2022-12-29T11:21:52;13.50;99.90
9971;DHT22;5026;51.494;11.974;2022-12-29T11:24:23;13.60;99.90
9971;DHT22;5026;51.494;11.974;2022-12-29T11:26:51;13.60;99.90
9971;DHT22;5026;51.494;11.974;2022-12-29T11:29:27;13.60;99.90
9971;DHT22;5026;51.494;11.974;2022-12-29T11:31:56;13.50;99.90
9971;DHT22;5026;51.494;11.974;2022-12-29T11:34:25;13.50;99.90
9971;DHT22;5026;51.494;11.974;2022-12-29T11:36:58;13.50;99.90
9971;DHT22;5026;51.494;11.974;2022-12-29T11:39:32;13.50;99.90
9971;DHT22;5026;51.494;11.974;2022-12-29T11:42:00;13.50;99.90
9971;DHT22;5026;51.494;11.974;2022-12-29T11:44:34;13.60;99.90
9971;DHT22;5026;51.494;11.974;2022-12-29T11:47:02;13.60;99.90
9971;DHT22;5026;51.494;11.974;2022-12-29T11:49:30;13.60;99.90
9971;DHT22;5026;51.494;11.974;2022-12-29T11:51:57;13.60;99.90
9971;DHT22;5026;51.494;11.974;2022-12-29T11:54:25;13.60;99.90
9971;DHT22;5026;51.494;11.974;2022-12-29T11:56:55;13.70;99.90
9971;DHT22;5026;51.494;11.974;2022-12-29T11:59:42;13.70;99.90
9971;DHT22;5026;51.494;11.974;2022-12-29T12:02:26;13.70;99.90
9971;DHT22;5026;51.494;11.974;2022-12-29T12:05:01;13.70;99.90
9971;DHT22;5026;51.494;11.974;2022-12-29T12:07:37;13.70;99.90
9971;DHT22;5026;51.494;11.974;2022-12-29T12:10:10;13.70;99.90
9971;DHT22;5026;51.494;11.974;2022-12-29T12:12:44;13.70;99.90
9971;DHT22;5026;51.494;11.974;2022-12-29T12:15:17;13.60;99.90
9971;DHT22;5026;51.494;11.974;2022-12-29T12:17:50;13.50;99.90
9971;DHT22;5026;51.494;11.974;2022-12-29T12:20:19;13.50;99.90
9971;DHT22;5026;51.494;11.974;2022-12-29T12:22:56;13.50;99.90
9971;DHT22;5026;51.494;11.974;2022-12-29T12:25:31;13.50;99.90
9971;DHT22;5026;51.494;11.974;2022-12-29T12:28:11;13.40;99.90
9971;DHT22;5026;51.494;11.974;2022-12-29T12:30:43;13.40;99.90
9971;DHT22;5026;51.494;11.974;2022-12-29T12:33:18;13.30;99.90
9971;DHT22;5026;51.494;11.974;2022-12-29T12:36:04;13.30;99.90
9971;DHT22;5026;51.494;11.974;2022-12-29T12:38:42;13.20;99.90
9971;DHT22;5026;51.494;11.974;2022-12-29T12:41:18;13.10;99.90
9971;DHT22;5026;51.494;11.974;2022-12-29T12:43:50;13.10;99.90
9971;DHT22;5026;51.494;11.974;2022-12-29T12:49:36;13.00;99.90
9971;DHT22;5026;51.494;11.974;2022-12-29T12:52:14;13.00;99.90
9971;DHT22;5026;51.494;11.974;2022-12-29T12:54:59;13.00;99.90
9971;DHT22;5026;51.494;11.974;2022-12-29T12:57:42;13.40;99.90
9971;DHT22;5026;51.494;11.974;2022-12-29T13:00:15;12.90;99.90
9971;DHT22;5026;51.494;11.974;2022-12-29T13:02:54;12.90;99.90
9971;DHT22;5026;51.494;11.974;2022-12-29T13:05:38;12.90;99.90
9971;DHT22;5026;51.494;11.974;2022-12-29T13:08:25;12.90;99.90
9971;DHT22;5026;51.494;11.974;2022-12-29T13:10:56;12.90;99.90
9971;DHT22;5026;51.494;11.974;2022-12-29T13:16:29;12.90;99.90
9971;DHT22;5026;51.494;11.974;2022-12-29T13:19:04;12.90;99.90
9971;DHT22;5026;51.494;11.974;2022-12-29T13:21:52;13.00;99.90
9971;DHT22;5026;51.494;11.974;2022-12-29T13:24:26;13.00;99.90
9971;DHT22;5026;51.494;11.974;2022-12-29T13:26:58;13.00;99.90
9971;DHT22;5026;51.494;11.974;2022-12-29T13:29:32;13.00;99.90
9971;DHT22;5026;51.494;11.974;2022-12-29T13:32:14;13.00;99.90
9971;DHT22;5026;51.494;11.974;2022-12-29T13:34:56;13.00;99.90
9971;DHT22;5026;51.494;11.974;2022-12-29T13:37:30;13.00;99.90
9971;DHT22;5026;51.494;11.974;2022-12-29T13:40:01;12.10;99.90
9971;DHT22;5026;51.494;11.974;2022-12-29T13:42:30;12.90;99.90
9971;DHT22;5026;51.494;11.974;2022-12-29T13:44:59;13.30;99.90
9971;DHT22;5026;51.494;11.974;2022-12-29T13:47:33;12.80;99.90
9971;DHT22;5026;51.494;11.974;2022-12-29T13:50:05;12.80;99.90
9971;DHT22;5026;51.494;11.974;2022-12-29T13:52:37;12.70;99.90
9971;DHT22;5026;51.494;11.974;2022-12-29T13:55:21;12.70;99.90
9971;DHT22;5026;51.494;11.974;2022-12-29T13:57:53;12.60;99.90
9971;DHT22;5026;51.494;11.974;2022-12-29T14:00:23;12.60;99.90
9971;DHT22;5026;51.494;11.974;2022-12-29T14:03:17;12.60;99.90
9971;DHT22;5026;51.494;11.974;2022-12-29T14:06:04;12.50;99.90
9971;DHT22;5026;51.494;11.974;2022-12-29T14:08:34;12.50;99.90
9971;DHT22;5026;51.494;11.974;2022-12-29T14:11:07;12.50;99.90
9971;DHT22;5026;51.494;11.974;2022-12-29T14:13:41;12.40;99.90
9971;DHT22;5026;51.494;11.974;2022-12-29T14:16:11;12.50;99.90
9971;DHT22;5026;51.494;11.974;2022-12-29T14:18:49;12.50;99.90
9971;DHT22;5026;51.494;11.974;2022-12-29T14:21:19;12.50;99.90
9971;DHT22;5026;51.494;11.974;2022-12-29T14:23:49;12.50;99.90
9971;DHT22;5026;51.494;11.974;2022-12-29T14:26:18;12.50;99.90
9971;DHT22;5026;51.494;11.974;2022-12-29T14:29:16;12.50;99.90
9971;DHT22;5026;51.494;11.974;2022-12-29T14:32:36;12.40;99.90
9971;DHT22;5026;51.494;11.974;2022-12-29T14:38:19;12.20;99.90
9971;DHT22;5026;51.494;11.974;2022-12-29T14:40:46;12.10;99.90
9971;DHT22;5026;51.494;11.974;2022-12-29T14:43:23;12.60;99.90
9971;DHT22;5026;51.494;11.974;2022-12-29T14:45:59;12.00;99.90
9971;DHT22;5026;51.494;11.974;2022-12-29T14:48:38;12.80;99.90
9971;DHT22;5026;51.494;11.974;2022-12-29T14:51:19;11.80;99.90
9971;DHT22;5026;51.494;11.974;2022-12-29T14:53:49;11.80;99.90
9971;DHT22;5026;51.494;11.974;2022-12-29T14:56:18;11.80;99.90
9971;DHT22;5026;51.494;11.974;2022-12-29T14:58:50;11.70;99.90
9971;DHT22;5026;51.494;11.974;2022-12-29T15:01:24;11.60;99.90
9971;DHT22;5026;51.494;11.974;2022-12-29T15:03:56;12.00;99.90
9971;DHT22;5026;51.494;11.974;2022-12-29T15:06:25;11.50;99.90
9971;DHT22;5026;51.494;11.974;2022-12-29T15:09:01;11.40;99.90
9971;DHT22;5026;51.494;11.974;2022-12-29T15:11:42;11.20;99.90
9971;DHT22;5026;51.494;11.974;2022-12-29T15:14:29;11.20;99.90
9971;DHT22;5026;51.494;11.974;2022-12-29T15:16:57;11.00;99.90
9971;DHT22;5026;51.494;11.974;2022-12-29T15:19:25;11.00;99.90
9971;DHT22;5026;51.494;11.974;2022-12-29T15:21:52;11.10;99.90
9971;DHT22;5026;51.494;11.974;2022-12-29T15:24:22;11.10;99.90
9971;DHT22;5026;51.494;11.974;2022-12-29T15:26:51;11.20;99.90
9971;DHT22;5026;51.494;11.974;2022-12-29T15:29:36;11.20;99.90
9971;DHT22;5026;51.494;11.974;2022-12-29T15:32:16;11.20;99.90
9971;DHT22;5026;51.494;11.974;2022-12-29T15:34:45;11.20;99.90
9971;DHT22;5026;51.494;11.974;2022-12-29T15:37:17;11.10;99.90
9971;DHT22;5026;51.494;11.974;2022-12-29T15:39:46;11.10;99.90
9971;DHT22;5026;51.494;11.974;2022-12-29T15:42:37;11.00;99.90
9971;DHT22;5026;51.494;11.974;2022-12-29T15:45:10;11.90;99.90
9971;DHT22;5026;51.494;11.974;2022-12-29T15:47:39;11.00;99.90
9971;DHT22;5026;51.494;11.974;2022-12-29T15:50:14;11.40;99.90
9971;DHT22;5026;51.494;11.974;2022-12-29T15:52:42;10.80;99.90
9971;DHT22;5026;51.494;11.974;2022-12-29T15:55:23;10.80;99.90
9971;DHT22;5026;51.494;11.974;2022-12-29T15:57:56;10.70;99.90
9971;DHT22;5026;51.494;11.974;2022-12-29T16:00:24;10.70;99.90
9971;DHT22;5026;51.494;11.974;2022-12-29T16:02:52;10.60;99.90
9971;DHT22;5026;51.494;11.974;2022-12-29T16:05:20;10.50;99.90
9971;DHT22;5026;51.494;11.974;2022-12-29T16:07:55;10.40;99.90
9971;DHT22;5026;51.494;11.974;2022-12-29T16:10:28;12.30;99.90
9971;DHT22;5026;51.494;11.974;2022-12-29T16:13:03;10.40;99.90
9971;DHT22;5026;51.494;11.974;2022-12-29T16:15:31;10.60;99.90
9971;DHT22;5026;51.494;11.974;2022-12-29T16:17:58;10.50;99.90
9971;DHT22;5026;51.494;11.974;2022-12-29T16:20:34;11.30;99.90
9971;DHT22;5026;51.494;11.974;2022-12-29T16:23:05;10.40;99.90
9971;DHT22;5026;51.494;11.974;2022-12-29T16:25:34;10.40;99.90
9971;DHT22;5026;51.494;11.974;2022-12-29T16:28:16;10.30;99.90
9971;DHT22;5026;51.494;11.974;2022-12-29T16:30:43;10.30;99.90